重慶 の空港の天気 - METARとTAF

重慶江北国際空港 ( ZUCK / CKG ) - 中国 重慶市
飛行場実況気象(Metar)
観測時間02/06 03:00 CST (02/05 19:00 UTC)
風向・風速北 5m/s
視程8000m
天気現象
なし
気温9℃
湿度76%
気圧1016hPa
METARZUCK 051900Z 36005MPS 8000 NSC 09/05 Q1016 NOSIG
過去の天気等 Google飛行場航空写真 Wunderground天気予報

過去48時間のMETAR

飛行場予報(TAF)
発表時間: 2/05 23:02 CST (2/05 15:02 UTC)
予報対象時間: 6日2時 CST ~ 7日2時 CST
風向・風速北北東 4m/s
視程6000m
全天の4割程度の雲 雲底高度 1220m
TAF ZUCK 051502Z 0518/0618 03004MPS 6000 SCT040 TX15/0607Z TN07/0520Z